Time,TemperatureF,DewpointF,PressureIn,WindDirection,WindDirectionDegrees,WindSpeedMPH,WindSpeedGustMPH,Humidity,HourlyPrecipIn,Conditions,Clouds,dailyrainin,SoftwareType,DateUTC
2013-05-28 00:01:00,54.3,51.1,29.75,ENE,67,0.0,0.0,89,0.00,,,0.00,WUHU21623XXSP,2013-05-28 04:01:00,
2013-05-28 00:06:00,54.3,51.1,29.75,NW,315,0.0,0.0,89,0.00,,,0.00,WUHU21623XXSP,2013-05-28 04:06:00,
2013-05-28 00:11:00,54.3,51.1,29.75,WSW,247,0.0,0.0,89,0.00,,,0.00,WUHU21623XXSP,2013-05-28 04:11:00,
2013-05-28 00:16:00,54.3,51.1,29.75,SSE,157,0.0,2.2,89,0.00,,,0.00,WUHU21623XXSP,2013-05-28 04:16:00,
2013-05-28 00:21:00,54.3,51.1,29.75,NW,315,0.0,2.2,89,0.00,,,0.00,WUHU21623XXSP,2013-05-28 04:21:00,
2013-05-28 00:26:00,54.5,51.3,29.75,NW,315,0.0,0.0,89,0.00,,,0.00,WUHU21623XXSP,2013-05-28 04:26:00,
2013-05-28 00:31:00,54.5,51.3,29.75,NW,315,0.0,0.0,89,0.00,,,0.00,WUHU21623XXSP,2013-05-28 04:31:00,
2013-05-28 00:36:00,54.7,51.8,29.74,NW,315,0.0,0.0,90,0.00,,,0.00,WUHU21623XXSP,2013-05-28 04:36:00,
2013-05-28 00:41:00,54.7,51.5,29.74,NW,315,0.0,0.0,89,0.00,,,0.00,WUHU21623XXSP,2013-05-28 04:41:00,
2013-05-28 00:46:00,54.7,51.8,29.74,NNW,337,0.9,0.9,90,0.00,,,0.00,WUHU21623XXSP,2013-05-28 04:46:00,
2013-05-28 00:51:00,54.7,51.8,29.74,NNW,337,0.0,0.9,90,0.00,,,0.00,WUHU21623XXSP,2013-05-28 04:51:00,
2013-05-28 00:56:00,54.7,51.5,29.74,NNW,337,0.0,0.0,89,0.00,,,0.00,WUHU21623XXSP,2013-05-28 04:56:00,
2013-05-28 01:01:00,54.7,51.8,29.74,NNW,337,0.0,0.0,90,0.00,,,0.00,WUHU21623XXSP,2013-05-28 05:01:00,
2013-05-28 01:06:00,54.7,51.8,29.74,NNW,337,0.0,0.0,90,0.00,,,0.00,WUHU21623XXSP,2013-05-28 05:06:00,
2013-05-28 01:11:00,54.9,52.0,29.74,East,90,0.0,2.0,90,0.00,,,0.00,WUHU21623XXSP,2013-05-28 05:11:00,
2013-05-28 01:16:00,54.9,52.0,29.73,ENE,67,0.0,2.0,90,0.00,,,0.00,WUHU21623XXSP,2013-05-28 05:16:00,
2013-05-28 01:21:00,54.9,52.0,29.73,East,90,0.0,0.0,90,0.00,,,0.00,WUHU21623XXSP,2013-05-28 05:21:00,
2013-05-28 01:26:00,54.9,52.0,29.74,East,90,0.0,0.0,90,0.00,,,0.00,WUHU21623XXSP,2013-05-28 05:26:00,
2013-05-28 01:31:00,54.9,52.2,29.73,East,90,0.0,0.0,90,0.00,,,0.00,WUHU21623XXSP,2013-05-28 05:31:00,
2013-05-28 01:36:00,55.0,52.2,29.73,WSW,247,0.0,1.8,90,0.00,,,0.00,WUHU21623XXSP,2013-05-28 05:36:00,
2013-05-28 01:41:00,55.0,52.2,29.73,WSW,247,0.0,1.8,90,0.00,,,0.00,WUHU21623XXSP,2013-05-28 05:41:00,
2013-05-28 01:46:00,55.0,52.2,29.74,SSE,157,0.0,0.0,90,0.00,,,0.00,WUHU21623XXSP,2013-05-28 05:46:00,
2013-05-28 01:51:00,55.2,52.3,29.74,SSE,157,0.0,0.0,90,0.00,,,0.00,WUHU21623XXSP,2013-05-28 05:51:00,
2013-05-28 01:56:00,55.2,52.3,29.74,SW,229,1.4,1.6,90,0.00,,,0.00,WUHU21623XXSP,2013-05-28 05:56:00,
2013-05-28 02:01:00,55.2,52.3,29.74,ESE,112,0.0,1.6,90,0.00,,,0.00,WUHU21623XXSP,2013-05-28 06:01:00,
2013-05-28 02:06:00,55.4,52.5,29.74,ENE,67,0.0,0.0,90,0.00,,,0.00,WUHU21623XXSP,2013-05-28 06:06:00,
2013-05-28 02:11:00,55.4,52.5,29.74,South,180,0.0,1.8,90,0.00,,,0.00,WUHU21623XXSP,2013-05-28 06:11:00,
2013-05-28 02:16:00,55.6,52.7,29.74,SW,225,0.0,1.8,90,0.00,,,0.00,WUHU21623XXSP,2013-05-28 06:16:00,
2013-05-28 02:21:00,55.6,52.7,29.74,South,180,0.0,0.0,90,0.00,,,0.00,WUHU21623XXSP,2013-05-28 06:21:00,
2013-05-28 02:26:00,55.6,52.7,29.73,South,180,0.0,0.0,90,0.00,,,0.00,WUHU21623XXSP,2013-05-28 06:26:00,
2013-05-28 02:31:00,55.6,52.7,29.73,SW,225,0.9,0.9,90,0.00,,,0.00,WUHU21623XXSP,2013-05-28 06:31:00,
2013-05-28 02:36:00,55.6,52.7,29.72,ESE,112,0.0,0.9,90,0.00,,,0.00,WUHU21623XXSP,2013-05-28 06:36:00,
2013-05-28 02:41:00,55.6,52.7,29.72,ESE,112,0.0,0.9,90,0.00,,,0.00,WUHU21623XXSP,2013-05-28 06:41:00,
2013-05-28 02:46:00,55.6,52.7,29.72,ESE,112,0.0,0.0,90,0.00,,,0.00,WUHU21623XXSP,2013-05-28 06:46:00,
2013-05-28 02:51:00,55.6,52.7,29.72,WSW,247,0.0,0.0,90,0.00,,,0.00,WUHU21623XXSP,2013-05-28 06:51:00,
2013-05-28 02:56:00,55.6,52.7,29.72,WSW,247,0.0,0.0,90,0.00,,,0.00,WUHU21623XXSP,2013-05-28 06:56:00,
2013-05-28 03:01:00,55.6,52.7,29.71,SSE,157,0.0,0.0,90,0.00,,,0.00,WUHU21623XXSP,2013-05-28 07:01:00,
2013-05-28 03:06:00,55.6,52.7,29.71,WSW,247,0.0,0.0,90,0.00,,,0.00,WUHU21623XXSP,2013-05-28 07:06:00,
2013-05-28 03:11:00,55.6,52.7,29.71,WNW,292,0.0,0.0,90,0.00,,,0.00,WUHU21623XXSP,2013-05-28 07:11:00,
2013-05-28 03:16:00,55.8,52.9,29.72,West,270,0.0,1.6,90,0.00,,,0.00,WUHU21623XXSP,2013-05-28 07:16:00,
2013-05-28 03:21:00,55.8,52.9,29.71,ESE,112,0.0,1.6,90,0.00,,,0.00,WUHU21623XXSP,2013-05-28 07:21:00,
2013-05-28 03:26:00,55.8,53.2,29.70,ESE,112,0.0,0.0,91,0.00,,,0.00,WUHU21623XXSP,2013-05-28 07:26:00,
2013-05-28 03:31:00,55.8,52.9,29.71,NW,315,0.0,0.0,90,0.00,,,0.00,WUHU21623XXSP,2013-05-28 07:31:00,
2013-05-28 03:36:00,55.8,52.9,29.70,NW,315,0.0,0.0,90,0.00,,,0.00,WUHU21623XXSP,2013-05-28 07:36:00,
2013-05-28 03:41:00,55.8,52.9,29.70,North,0,0.0,0.0,90,0.02,,,0.02,WUHU21623XXSP,2013-05-28 07:41:00,
2013-05-28 03:46:00,55.8,52.9,29.71,North,0,0.0,0.0,90,0.04,,,0.04,WUHU21623XXSP,2013-05-28 07:46:00,
2013-05-28 03:51:00,55.9,53.3,29.72,North,0,0.0,0.0,91,0.04,,,0.04,WUHU21623XXSP,2013-05-28 07:51:00,
2013-05-28 03:56:00,55.9,53.3,29.72,ENE,67,0.0,0.0,91,0.06,,,0.06,WUHU21623XXSP,2013-05-28 07:56:00,
2013-05-28 04:01:00,56.1,53.5,29.71,ENE,67,0.0,2.0,91,0.08,,,0.08,WUHU21623XXSP,2013-05-28 08:01:00,
2013-05-28 04:06:00,56.1,53.5,29.70,SSE,157,0.0,2.0,91,0.10,,,0.10,WUHU21623XXSP,2013-05-28 08:06:00,
2013-05-28 04:11:00,56.5,53.9,29.69,ENE,67,0.0,1.8,91,0.14,,,0.14,WUHU21623XXSP,2013-05-28 08:11:00,
2013-05-28 04:16:00,56.8,54.5,29.69,ESE,105,1.3,3.6,92,0.18,,,0.18,WUHU21623XXSP,2013-05-28 08:16:00,
2013-05-28 04:21:00,57.0,54.7,29.70,SSE,157,0.0,3.6,92,0.18,,,0.18,WUHU21623XXSP,2013-05-28 08:21:00,
2013-05-28 04:26:00,57.4,55.1,29.70,SSW,202,0.0,1.8,92,0.18,,,0.18,WUHU21623XXSP,2013-05-28 08:26:00,
2013-05-28 04:31:00,57.6,55.3,29.70,East,90,0.0,1.1,92,0.18,,,0.18,WUHU21623XXSP,2013-05-28 08:31:00,
2013-05-28 04:36:00,57.7,55.4,29.70,SE,135,0.0,0.9,92,0.18,,,0.18,WUHU21623XXSP,2013-05-28 08:36:00,
2013-05-28 04:41:00,57.9,55.6,29.70,WSW,247,0.0,0.9,92,0.18,,,0.20,WUHU21623XXSP,2013-05-28 08:41:00,
2013-05-28 04:46:00,57.9,55.6,29.69,SSE,157,0.0,0.0,92,0.16,,,0.20,WUHU21623XXSP,2013-05-28 08:46:00,
2013-05-28 04:51:00,57.9,55.6,29.68,SSE,157,0.0,0.0,92,0.16,,,0.20,WUHU21623XXSP,2013-05-28 08:51:00,
2013-05-28 04:56:00,57.9,55.6,29.68,SSE,157,0.0,0.0,92,0.14,,,0.20,WUHU21623XXSP,2013-05-28 08:56:00,
2013-05-28 05:01:00,57.9,55.6,29.68,SSE,157,0.0,0.0,92,0.12,,,0.20,WUHU21623XXSP,2013-05-28 09:01:00,
2013-05-28 05:06:00,58.3,56.0,29.68,ENE,67,0.0,0.0,92,0.10,,,0.20,WUHU21623XXSP,2013-05-28 09:06:00,
2013-05-28 05:11:00,58.6,56.3,29.69,NE,45,0.0,1.3,92,0.04,,,0.20,WUHU21623XXSP,2013-05-28 09:11:00,
2013-05-28 05:16:00,58.8,56.5,29.69,NE,45,0.0,1.3,92,0.02,,,0.20,WUHU21623XXSP,2013-05-28 09:16:00,
2013-05-28 05:21:00,59.2,56.9,29.69,SSW,210,3.7,5.4,92,0.02,,,0.20,WUHU21623XXSP,2013-05-28 09:21:00,
2013-05-28 05:26:00,59.4,57.1,29.69,ENE,67,0.0,5.4,92,0.02,,,0.20,WUHU21623XXSP,2013-05-28 09:26:00,
2013-05-28 05:31:00,59.5,57.2,29.69,West,270,0.0,4.0,92,0.02,,,0.20,WUHU21623XXSP,2013-05-28 09:31:00,
2013-05-28 05:36:00,59.4,57.1,29.69,NE,45,0.0,2.2,92,0.02,,,0.20,WUHU21623XXSP,2013-05-28 09:36:00,
2013-05-28 05:41:00,59.4,57.1,29.69,NE,45,0.0,0.0,92,0.00,,,0.20,WUHU21623XXSP,2013-05-28 09:41:00,
2013-05-28 05:46:00,59.5,57.2,29.69,NE,45,0.0,0.0,92,0.00,,,0.20,WUHU21623XXSP,2013-05-28 09:46:00,
2013-05-28 05:51:00,59.5,57.2,29.69,NE,45,0.0,0.0,92,0.00,,,0.20,WUHU21623XXSP,2013-05-28 09:51:00,
2013-05-28 05:56:00,59.5,57.2,29.69,NE,45,0.0,0.0,92,0.00,,,0.20,WUHU21623XXSP,2013-05-28 09:56:00,
2013-05-28 06:01:00,59.5,57.2,29.69,NE,45,0.0,0.0,92,0.00,,,0.20,WUHU21623XXSP,2013-05-28 10:01:00,
2013-05-28 06:06:00,59.5,57.2,29.68,NE,45,0.0,0.0,92,0.00,,,0.20,WUHU21623XXSP,2013-05-28 10:06:00,
2013-05-28 06:11:00,59.5,57.2,29.68,NE,45,0.0,0.0,92,0.00,,,0.20,WUHU21623XXSP,2013-05-28 10:11:00,
2013-05-28 06:16:00,59.4,57.1,29.68,NE,45,0.0,0.0,92,0.00,,,0.20,WUHU21623XXSP,2013-05-28 10:16:00,
2013-05-28 06:21:00,59.4,57.1,29.68,NE,45,0.0,0.0,92,0.00,,,0.20,WUHU21623XXSP,2013-05-28 10:21:00,
2013-05-28 06:26:00,59.4,57.1,29.68,NE,45,0.0,0.0,92,0.00,,,0.20,WUHU21623XXSP,2013-05-28 10:26:00,
2013-05-28 06:31:00,59.4,57.1,29.68,NE,45,0.0,0.0,92,0.00,,,0.20,WUHU21623XXSP,2013-05-28 10:31:00,
2013-05-28 06:36:00,59.2,56.9,29.68,NE,45,0.0,0.0,92,0.00,,,0.20,WUHU21623XXSP,2013-05-28 10:36:00,
2013-05-28 06:41:00,59.4,57.1,29.68,NE,45,0.0,0.0,92,0.00,,,0.20,WUHU21623XXSP,2013-05-28 10:41:00,
2013-05-28 06:47:00,59.4,57.1,29.68,NE,45,0.0,0.0,92,0.00,,,0.20,WUHU21623XXSP,2013-05-28 10:47:00,
2013-05-28 06:52:00,59.5,57.2,29.68,North,0,0.0,0.0,92,0.00,,,0.20,WUHU21623XXSP,2013-05-28 10:52:00,
2013-05-28 06:57:00,59.7,57.4,29.68,NE,45,0.0,0.0,92,0.00,,,0.20,WUHU21623XXSP,2013-05-28 10:57:00,
2013-05-28 07:02:00,59.7,57.4,29.68,ENE,67,0.0,0.0,92,0.00,,,0.20,WUHU21623XXSP,2013-05-28 11:02:00,
2013-05-28 07:07:00,59.9,57.9,29.68,NW,315,0.0,0.0,93,0.00,,,0.20,WUHU21623XXSP,2013-05-28 11:07:00,
2013-05-28 07:12:00,60.1,58.1,29.68,NE,45,0.0,0.0,93,0.00,,,0.20,WUHU21623XXSP,2013-05-28 11:12:00,
2013-05-28 07:17:00,60.4,58.4,29.68,South,191,1.5,4.7,93,0.00,,,0.20,WUHU21623XXSP,2013-05-28 11:17:00,
2013-05-28 07:22:00,60.6,58.6,29.69,SSW,202,2.2,4.7,93,0.00,,,0.20,WUHU21623XXSP,2013-05-28 11:22:00,
2013-05-28 07:27:00,61.2,59.1,29.69,South,180,3.1,3.6,93,0.00,,,0.20,WUHU21623XXSP,2013-05-28 11:27:00,
2013-05-28 07:32:00,61.3,59.3,29.68,ENE,67,0.0,3.1,93,0.00,,,0.20,WUHU21623XXSP,2013-05-28 11:32:00,
2013-05-28 07:37:00,61.5,59.5,29.68,SSW,209,2.4,3.4,93,0.00,,,0.20,WUHU21623XXSP,2013-05-28 11:37:00,
2013-05-28 07:42:00,61.7,59.7,29.69,SE,135,0.0,3.4,93,0.00,,,0.20,WUHU21623XXSP,2013-05-28 11:42:00,
2013-05-28 07:47:00,61.9,59.9,29.69,SSE,157,0.0,2.5,93,0.00,,,0.20,WUHU21623XXSP,2013-05-28 11:47:00,
2013-05-28 07:52:00,62.2,60.2,29.69,SE,135,0.0,1.3,93,0.00,,,0.20,WUHU21623XXSP,2013-05-28 11:52:00,
2013-05-28 07:57:00,62.2,60.2,29.69,SSW,202,2.2,4.3,93,0.00,,,0.20,WUHU21623XXSP,2013-05-28 11:57:00,
2013-05-28 08:02:00,62.4,60.4,29.69,SSW,205,2.6,4.3,93,0.00,,,0.20,WUHU21623XXSP,2013-05-28 12:02:00,
2013-05-28 08:07:00,62.4,60.4,29.69,NE,45,0.0,4.3,93,0.00,,,0.20,WUHU21623XXSP,2013-05-28 12:07:00,
2013-05-28 08:12:00,62.8,60.8,29.69,South,180,0.0,1.3,93,0.00,,,0.20,WUHU21623XXSP,2013-05-28 12:12:00,
2013-05-28 08:17:00,63.0,60.9,29.69,SSW,192,5.8,9.2,93,0.00,,,0.20,WUHU21623XXSP,2013-05-28 12:17:00,
2013-05-28 08:22:00,63.1,61.1,29.69,SSW,202,2.2,9.2,93,0.00,,,0.20,WUHU21623XXSP,2013-05-28 12:22:00,
2013-05-28 08:27:00,63.3,61.3,29.69,SSE,155,2.6,5.1,93,0.00,,,0.20,WUHU21623XXSP,2013-05-28 12:27:00,
2013-05-28 08:32:00,63.5,61.5,29.68,SSW,202,1.1,5.1,93,0.00,,,0.20,WUHU21623XXSP,2013-05-28 12:32:00,
2013-05-28 08:37:00,63.7,61.7,29.68,SSW,202,3.6,3.6,93,0.00,,,0.20,WUHU21623XXSP,2013-05-28 12:37:00,
2013-05-28 08:42:00,63.7,61.7,29.68,SSW,203,2.6,5.4,93,0.00,,,0.20,WUHU21623XXSP,2013-05-28 12:42:00,
2013-05-28 08:47:00,64.0,62.0,29.67,SSE,165,2.0,8.9,93,0.00,,,0.20,WUHU21623XXSP,2013-05-28 12:47:00,
2013-05-28 08:52:00,64.2,62.2,29.67,SE,137,1.6,8.9,93,0.00,,,0.20,WUHU21623XXSP,2013-05-28 12:52:00,
2013-05-28 08:57:00,64.6,62.5,29.67,SSW,204,1.8,5.1,93,0.00,,,0.20,WUHU21623XXSP,2013-05-28 12:57:00,
2013-05-28 09:02:00,64.6,62.3,29.67,SSW,202,5.8,5.8,92,0.00,,,0.20,WUHU21623XXSP,2013-05-28 13:02:00,
2013-05-28 09:07:00,64.9,62.6,29.67,SSW,205,2.5,6.7,92,0.00,,,0.20,WUHU21623XXSP,2013-05-28 13:07:00,
2013-05-28 09:12:00,65.1,62.7,29.67,South,180,2.5,6.7,92,0.00,,,0.20,WUHU21623XXSP,2013-05-28 13:12:00,
2013-05-28 09:17:00,65.1,62.7,29.66,South,188,1.5,8.3,92,0.00,,,0.20,WUHU21623XXSP,2013-05-28 13:17:00,
2013-05-28 09:22:00,65.5,62.8,29.67,South,180,1.6,8.3,91,0.00,,,0.20,WUHU21623XXSP,2013-05-28 13:22:00,
2013-05-28 09:27:00,65.5,62.8,29.67,SSW,207,2.9,9.2,91,0.00,,,0.20,WUHU21623XXSP,2013-05-28 13:27:00,
2013-05-28 09:32:00,65.8,62.8,29.66,WSW,242,2.3,10.1,90,0.00,,,0.20,WUHU21623XXSP,2013-05-28 13:32:00,
2013-05-28 09:37:00,66.0,63.0,29.66,SSE,165,3.0,10.1,90,0.00,,,0.20,WUHU21623XXSP,2013-05-28 13:37:00,
2013-05-28 09:42:00,66.4,63.3,29.66,SSW,206,4.4,13.0,90,0.00,,,0.20,WUHU21623XXSP,2013-05-28 13:42:00,
2013-05-28 09:47:00,66.4,63.0,29.66,SSW,202,0.0,13.0,89,0.00,,,0.20,WUHU21623XXSP,2013-05-28 13:47:00,
2013-05-28 09:52:00,66.7,63.4,29.66,West,266,1.6,7.4,89,0.00,,,0.20,WUHU21623XXSP,2013-05-28 13:52:00,
2013-05-28 09:57:00,66.7,63.0,29.67,SSW,202,10.5,10.5,88,0.00,,,0.20,WUHU21623XXSP,2013-05-28 13:57:00,
2013-05-28 10:02:00,66.9,63.2,29.66,SSW,202,2.2,11.9,88,0.00,,,0.20,WUHU21623XXSP,2013-05-28 14:02:00,
2013-05-28 10:07:00,67.3,63.6,29.66,South,180,1.3,11.9,88,0.00,,,0.20,WUHU21623XXSP,2013-05-28 14:07:00,
2013-05-28 10:12:00,67.3,63.2,29.66,South,191,3.6,9.2,87,0.00,,,0.20,WUHU21623XXSP,2013-05-28 14:12:00,
2013-05-28 10:17:00,67.5,63.4,29.66,SSW,207,2.1,9.2,87,0.00,,,0.20,WUHU21623XXSP,2013-05-28 14:17:00,
2013-05-28 10:22:00,67.6,63.6,29.67,SSW,206,2.5,7.4,87,0.00,,,0.20,WUHU21623XXSP,2013-05-28 14:22:00,
2013-05-28 10:27:00,67.8,63.8,29.67,SSW,198,5.1,12.5,87,0.00,,,0.20,WUHU21623XXSP,2013-05-28 14:27:00,
2013-05-28 10:32:00,67.8,63.5,29.67,SSW,202,4.0,12.5,86,0.00,,,0.20,WUHU21623XXSP,2013-05-28 14:32:00,
2013-05-28 10:37:00,68.2,63.8,29.67,WNW,292,0.0,11.9,86,0.00,,,0.20,WUHU21623XXSP,2013-05-28 14:37:00,
2013-05-28 10:42:00,68.4,63.7,29.67,SSW,205,3.1,11.9,85,0.00,,,0.20,WUHU21623XXSP,2013-05-28 14:42:00,
2013-05-28 10:47:00,68.5,63.8,29.67,SSW,207,3.6,9.6,85,0.00,,,0.20,WUHU21623XXSP,2013-05-28 14:47:00,
2013-05-28 10:52:00,68.7,64.0,29.67,SSW,203,3.1,13.2,85,0.00,,,0.20,WUHU21623XXSP,2013-05-28 14:52:00,
2013-05-28 10:57:00,68.9,64.2,29.66,SSW,209,2.5,13.2,85,0.00,,,0.20,WUHU21623XXSP,2013-05-28 14:57:00,
2013-05-28 11:02:00,69.1,64.0,29.66,South,186,3.8,17.4,84,0.00,,,0.20,WUHU21623XXSP,2013-05-28 15:02:00,
2013-05-28 11:07:00,69.1,64.0,29.66,South,180,7.2,17.4,84,0.00,,,0.20,WUHU21623XXSP,2013-05-28 15:07:00,
2013-05-28 11:12:00,69.1,64.0,29.65,SSW,202,12.1,12.1,84,0.00,,,0.20,WUHU21623XXSP,2013-05-28 15:12:00,
2013-05-28 11:17:00,68.9,63.8,29.64,South,183,3.0,12.1,84,0.00,,,0.20,WUHU21623XXSP,2013-05-28 15:17:00,
2013-05-28 11:22:00,69.1,64.0,29.63,SW,225,0.7,10.5,84,0.00,,,0.20,WUHU21623XXSP,2013-05-28 15:22:00,
2013-05-28 11:27:00,69.1,64.3,29.64,SW,222,1.6,7.2,85,0.00,,,0.20,WUHU21623XXSP,2013-05-28 15:27:00,
2013-05-28 11:32:00,69.1,64.3,29.65,SSW,197,3.5,7.8,85,0.00,,,0.20,WUHU21623XXSP,2013-05-28 15:32:00,
2013-05-28 11:37:00,69.1,64.0,29.65,SE,135,1.1,8.3,84,0.00,,,0.20,WUHU21623XXSP,2013-05-28 15:37:00,
2013-05-28 11:42:00,69.3,64.2,29.65,South,182,4.9,9.6,84,0.00,,,0.20,WUHU21623XXSP,2013-05-28 15:42:00,
2013-05-28 11:47:00,69.4,64.3,29.64,SSW,192,4.7,15.9,84,0.00,,,0.20,WUHU21623XXSP,2013-05-28 15:47:00,
2013-05-28 11:52:00,70.0,64.9,29.64,SSW,200,4.1,15.9,84,0.00,,,0.20,WUHU21623XXSP,2013-05-28 15:52:00,
2013-05-28 11:57:00,70.3,64.9,29.65,SSW,192,5.6,15.9,83,0.00,,,0.20,WUHU21623XXSP,2013-05-28 15:57:00,
2013-05-28 12:02:00,70.5,65.1,29.64,South,191,4.8,15.9,83,0.00,,,0.20,WUHU21623XXSP,2013-05-28 16:02:00,
2013-05-28 12:07:00,70.9,65.4,29.64,SSW,210,4.4,13.0,83,0.00,,,0.20,WUHU21623XXSP,2013-05-28 16:07:00,
2013-05-28 12:12:00,71.4,66.0,29.64,SSW,197,1.8,18.3,83,0.00,,,0.20,WUHU21623XXSP,2013-05-28 16:12:00,
2013-05-28 12:17:00,72.1,66.3,29.65,SSW,202,2.9,18.3,82,0.00,,,0.20,WUHU21623XXSP,2013-05-28 16:17:00,
2013-05-28 12:22:00,72.9,66.4,29.64,South,187,3.4,12.8,80,0.00,,,0.20,WUHU21623XXSP,2013-05-28 16:22:00,
2013-05-28 12:27:00,73.2,66.7,29.65,South,188,2.9,10.1,80,0.00,,,0.20,WUHU21623XXSP,2013-05-28 16:27:00,
2013-05-28 12:32:00,73.9,67.1,29.65,SSW,207,3.7,7.4,79,0.00,,,0.20,WUHU21623XXSP,2013-05-28 16:32:00,
2013-05-28 12:37:00,74.5,67.6,29.65,South,180,6.0,7.8,79,0.00,,,0.20,WUHU21623XXSP,2013-05-28 16:37:00,
2013-05-28 12:42:00,75.4,68.1,29.66,South,172,3.2,15.9,78,0.00,,,0.20,WUHU21623XXSP,2013-05-28 16:42:00,
2013-05-28 12:47:00,75.9,68.2,29.65,SSW,192,3.0,15.9,77,0.00,,,0.20,WUHU21623XXSP,2013-05-28 16:47:00,
2013-05-28 12:52:00,75.9,67.8,29.66,South,191,5.0,13.0,76,0.00,,,0.20,WUHU21623XXSP,2013-05-28 16:52:00,
2013-05-28 12:57:00,75.9,67.8,29.66,SSW,202,3.1,13.0,76,0.00,,,0.20,WUHU21623XXSP,2013-05-28 16:57:00,
2013-05-28 13:02:00,75.6,67.5,29.66,South,186,3.1,9.2,76,0.00,,,0.20,WUHU21623XXSP,2013-05-28 17:02:00,
2013-05-28 13:07:00,75.2,67.1,29.67,South,180,7.2,8.7,76,0.00,,,0.20,WUHU21623XXSP,2013-05-28 17:07:00,
2013-05-28 13:12:00,74.8,66.8,29.68,SSW,202,12.3,12.3,76,0.00,,,0.20,WUHU21623XXSP,2013-05-28 17:12:00,
2013-05-28 13:17:00,74.1,66.1,29.68,SSW,192,3.1,12.3,76,0.00,,,0.20,WUHU21623XXSP,2013-05-28 17:17:00,
2013-05-28 13:22:00,73.6,65.9,29.68,SW,214,3.1,9.4,77,0.00,,,0.20,WUHU21623XXSP,2013-05-28 17:22:00,
2013-05-28 13:27:00,73.2,65.6,29.68,WSW,245,3.5,8.9,77,0.00,,,0.20,WUHU21623XXSP,2013-05-28 17:27:00,
2013-05-28 13:32:00,73.0,65.8,29.68,SW,225,0.9,6.7,78,0.00,,,0.20,WUHU21623XXSP,2013-05-28 17:32:00,
2013-05-28 13:37:00,73.0,66.2,29.67,SW,217,2.8,6.7,79,0.00,,,0.20,WUHU21623XXSP,2013-05-28 17:37:00,
2013-05-28 13:42:00,73.2,66.4,29.67,SW,230,1.9,8.3,79,0.00,,,0.20,WUHU21623XXSP,2013-05-28 17:42:00,
2013-05-28 13:47:00,73.6,66.3,29.67,WNW,292,0.0,8.3,78,0.00,,,0.20,WUHU21623XXSP,2013-05-28 17:47:00,
2013-05-28 13:52:00,73.6,66.3,29.67,South,170,1.4,6.0,78,0.00,,,0.20,WUHU21623XXSP,2013-05-28 17:52:00,
2013-05-28 13:57:00,73.6,66.3,29.67,SSW,202,2.2,6.0,78,0.00,,,0.20,WUHU21623XXSP,2013-05-28 17:57:00,
2013-05-28 14:02:00,73.6,66.5,29.67,WSW,251,2.3,6.0,78,0.00,,,0.20,WUHU21623XXSP,2013-05-28 18:02:00,
2013-05-28 14:07:00,73.9,66.7,29.67,SSW,201,4.6,12.5,78,0.00,,,0.20,WUHU21623XXSP,2013-05-28 18:07:00,
2013-05-28 14:12:00,74.1,66.9,29.67,West,267,2.1,12.5,78,0.00,,,0.20,WUHU21623XXSP,2013-05-28 18:12:00,
2013-05-28 14:17:00,74.3,66.7,29.67,WSW,247,5.6,14.1,77,0.00,,,0.20,WUHU21623XXSP,2013-05-28 18:17:00,
2013-05-28 14:22:00,74.3,66.3,29.67,SSW,199,4.8,14.1,76,0.00,,,0.20,WUHU21623XXSP,2013-05-28 18:22:00,
2013-05-28 14:27:00,74.1,66.5,29.67,South,171,1.7,10.7,77,0.00,,,0.20,WUHU21623XXSP,2013-05-28 18:27:00,
2013-05-28 14:32:00,73.8,66.1,29.66,SSW,207,2.3,9.8,77,0.00,,,0.20,WUHU21623XXSP,2013-05-28 18:32:00,
2013-05-28 14:37:00,73.6,65.9,29.66,SW,218,3.3,9.8,77,0.00,,,0.20,WUHU21623XXSP,2013-05-28 18:37:00,
2013-05-28 14:42:00,73.6,66.3,29.66,WSW,247,0.0,8.3,78,0.00,,,0.20,WUHU21623XXSP,2013-05-28 18:42:00,
2013-05-28 14:47:00,73.4,66.2,29.65,South,188,2.2,4.5,78,0.00,,,0.20,WUHU21623XXSP,2013-05-28 18:47:00,
2013-05-28 14:52:00,73.4,66.2,29.65,SSW,198,2.9,8.1,78,0.00,,,0.20,WUHU21623XXSP,2013-05-28 18:52:00,
2013-05-28 14:57:00,73.2,66.4,29.66,SW,218,2.9,8.1,79,0.00,,,0.20,WUHU21623XXSP,2013-05-28 18:57:00,
2013-05-28 15:02:00,73.2,66.4,29.65,SSW,202,3.8,5.1,79,0.00,,,0.20,WUHU21623XXSP,2013-05-28 19:02:00,
2013-05-28 15:07:00,73.2,66.7,29.65,South,184,2.5,3.8,80,0.00,,,0.20,WUHU21623XXSP,2013-05-28 19:07:00,
2013-05-28 15:12:00,73.0,66.6,29.66,SW,215,3.1,8.7,80,0.00,,,0.20,WUHU21623XXSP,2013-05-28 19:12:00,
2013-05-28 15:17:00,73.0,66.6,29.66,WSW,247,4.5,8.7,80,0.00,,,0.20,WUHU21623XXSP,2013-05-28 19:17:00,
2013-05-28 15:22:00,73.0,66.6,29.66,WSW,254,2.1,6.3,80,0.00,,,0.20,WUHU21623XXSP,2013-05-28 19:22:00,
2013-05-28 15:27:00,72.7,65.8,29.66,SSW,202,1.6,6.3,79,0.02,,,0.22,WUHU21623XXSP,2013-05-28 19:27:00,
2013-05-28 15:32:00,72.5,66.0,29.66,South,180,0.0,3.4,80,0.02,,,0.22,WUHU21623XXSP,2013-05-28 19:32:00,
2013-05-28 15:37:00,72.1,66.0,29.66,SSW,202,0.0,2.2,81,0.04,,,0.24,WUHU21623XXSP,2013-05-28 19:37:00,
2013-05-28 15:42:00,71.8,65.6,29.66,SSW,202,0.0,2.2,81,0.04,,,0.24,WUHU21623XXSP,2013-05-28 19:42:00,
2013-05-28 15:47:00,71.4,66.0,29.66,SW,225,0.0,0.0,83,0.04,,,0.24,WUHU21623XXSP,2013-05-28 19:47:00,
2013-05-28 15:52:00,71.4,66.0,29.66,South,180,0.0,0.0,83,0.04,,,0.24,WUHU21623XXSP,2013-05-28 19:52:00,
2013-05-28 15:57:00,71.2,65.8,29.66,South,180,0.0,0.0,83,0.04,,,0.24,WUHU21623XXSP,2013-05-28 19:57:00,
2013-05-28 16:02:00,71.2,66.1,29.66,West,270,0.0,0.0,84,0.04,,,0.24,WUHU21623XXSP,2013-05-28 20:02:00,
2013-05-28 16:07:00,71.2,66.1,29.66,SW,225,0.0,0.9,84,0.04,,,0.24,WUHU21623XXSP,2013-05-28 20:07:00,
2013-05-28 16:12:00,71.2,66.5,29.66,SW,225,0.0,0.9,85,0.04,,,0.24,WUHU21623XXSP,2013-05-28 20:12:00,
2013-05-28 16:17:00,71.2,66.8,29.65,SW,225,0.9,0.9,86,0.04,,,0.24,WUHU21623XXSP,2013-05-28 20:17:00,
2013-05-28 16:22:00,71.4,67.3,29.65,SSW,212,1.9,4.5,87,0.04,,,0.24,WUHU21623XXSP,2013-05-28 20:22:00,
2013-05-28 16:27:00,71.8,67.7,29.65,South,191,3.2,8.5,87,0.02,,,0.24,WUHU21623XXSP,2013-05-28 20:27:00,
2013-05-28 16:32:00,72.3,68.2,29.65,South,180,3.1,8.5,87,0.02,,,0.24,WUHU21623XXSP,2013-05-28 20:32:00,
2013-05-28 16:37:00,72.7,68.3,29.65,SSW,200,3.1,7.8,86,0.00,,,0.24,WUHU21623XXSP,2013-05-28 20:37:00,
2013-05-28 16:42:00,73.0,68.3,29.65,SSW,208,2.2,7.8,85,0.00,,,0.24,WUHU21623XXSP,2013-05-28 20:42:00,
2013-05-28 16:47:00,73.0,68.3,29.65,SSW,196,2.2,6.3,85,0.00,,,0.24,WUHU21623XXSP,2013-05-28 20:47:00,
2013-05-28 16:52:00,72.9,68.1,29.65,SSW,212,2.0,4.7,85,0.00,,,0.24,WUHU21623XXSP,2013-05-28 20:52:00,
2013-05-28 16:57:00,72.7,67.6,29.64,SSW,197,1.6,4.9,84,0.00,,,0.24,WUHU21623XXSP,2013-05-28 20:57:00,
2013-05-28 17:02:00,72.7,67.9,29.65,South,173,3.2,10.3,85,0.00,,,0.24,WUHU21623XXSP,2013-05-28 21:02:00,
2013-05-28 17:07:00,72.9,68.1,29.64,South,174,2.3,12.3,85,0.00,,,0.24,WUHU21623XXSP,2013-05-28 21:07:00,
2013-05-28 17:12:00,73.2,68.5,29.64,SSW,213,3.2,12.3,85,0.00,,,0.24,WUHU21623XXSP,2013-05-28 21:12:00,
2013-05-28 17:17:00,73.6,68.8,29.64,SW,223,2.5,6.0,85,0.00,,,0.24,WUHU21623XXSP,2013-05-28 21:17:00,
2013-05-28 17:22:00,74.1,69.0,29.64,SSW,207,4.6,8.1,84,0.00,,,0.24,WUHU21623XXSP,2013-05-28 21:22:00,
2013-05-28 17:27:00,74.3,68.8,29.64,West,270,10.3,10.3,83,0.00,,,0.24,WUHU21623XXSP,2013-05-28 21:27:00,
2013-05-28 17:32:00,74.5,69.0,29.64,SSW,207,4.1,13.2,83,0.00,,,0.24,WUHU21623XXSP,2013-05-28 21:32:00,
2013-05-28 17:37:00,74.8,69.0,29.64,South,180,3.1,13.2,82,0.00,,,0.24,WUHU21623XXSP,2013-05-28 21:37:00,
2013-05-28 17:42:00,75.2,69.1,29.63,SSW,196,2.3,7.4,81,0.00,,,0.24,WUHU21623XXSP,2013-05-28 21:42:00,
2013-05-28 17:47:00,75.4,69.2,29.63,SSW,194,2.7,8.5,81,0.00,,,0.24,WUHU21623XXSP,2013-05-28 21:47:00,
2013-05-28 17:52:00,75.6,69.4,29.63,SSW,199,4.7,11.0,81,0.00,,,0.24,WUHU21623XXSP,2013-05-28 21:52:00,
2013-05-28 17:57:00,75.7,69.2,29.63,SSW,198,3.2,11.0,80,0.00,,,0.24,WUHU21623XXSP,2013-05-28 21:57:00,
2013-05-28 18:02:00,75.7,69.2,29.63,SW,218,5.6,11.2,80,0.00,,,0.24,WUHU21623XXSP,2013-05-28 22:02:00,
2013-05-28 18:07:00,75.7,68.8,29.63,SSW,201,5.3,12.3,79,0.00,,,0.24,WUHU21623XXSP,2013-05-28 22:07:00,
2013-05-28 18:12:00,75.7,68.8,29.63,SSE,165,2.5,12.3,79,0.00,,,0.24,WUHU21623XXSP,2013-05-28 22:12:00,
2013-05-28 18:17:00,75.9,69.0,29.63,SSW,201,3.0,8.7,79,0.00,,,0.24,WUHU21623XXSP,2013-05-28 22:17:00,
2013-05-28 18:22:00,75.9,69.0,29.63,South,180,4.0,10.1,79,0.00,,,0.24,WUHU21623XXSP,2013-05-28 22:22:00,
2013-05-28 18:27:00,75.9,69.0,29.63,SSW,202,2.5,10.1,79,0.00,,,0.24,WUHU21623XXSP,2013-05-28 22:27:00,
2013-05-28 18:32:00,76.1,69.1,29.63,SSW,209,5.6,11.2,79,0.00,,,0.24,WUHU21623XXSP,2013-05-28 22:32:00,
2013-05-28 18:37:00,76.1,69.1,29.63,SSE,157,2.7,11.2,79,0.00,,,0.24,WUHU21623XXSP,2013-05-28 22:37:00,
2013-05-28 18:42:00,76.1,68.8,29.63,South,190,3.2,8.9,78,0.00,,,0.24,WUHU21623XXSP,2013-05-28 22:42:00,
2013-05-28 18:47:00,76.3,68.5,29.63,SSW,202,3.1,21.0,77,0.00,,,0.24,WUHU21623XXSP,2013-05-28 22:47:00,
2013-05-28 18:52:00,76.3,68.1,29.63,WSW,247,5.8,21.0,76,0.00,,,0.24,WUHU21623XXSP,2013-05-28 22:52:00,
2013-05-28 18:57:00,76.5,68.3,29.63,SW,216,2.4,15.4,76,0.00,,,0.24,WUHU21623XXSP,2013-05-28 22:57:00,
2013-05-28 19:02:00,76.5,68.3,29.63,SW,232,1.3,5.8,76,0.00,,,0.24,WUHU21623XXSP,2013-05-28 23:02:00,
2013-05-28 19:07:00,76.3,67.8,29.64,South,190,5.8,8.1,75,0.00,,,0.24,WUHU21623XXSP,2013-05-28 23:07:00,
2013-05-28 19:12:00,76.3,67.8,29.63,SSW,196,5.3,14.3,75,0.00,,,0.24,WUHU21623XXSP,2013-05-28 23:12:00,
2013-05-28 19:17:00,76.1,68.0,29.63,SSW,202,8.5,14.3,76,0.00,,,0.24,WUHU21623XXSP,2013-05-28 23:17:00,
2013-05-28 19:22:00,75.9,67.8,29.63,SE,135,11.9,11.9,76,0.00,,,0.24,WUHU21623XXSP,2013-05-28 23:22:00,
2013-05-28 19:27:00,75.9,67.4,29.64,SSW,202,6.9,15.9,75,0.00,,,0.24,WUHU21623XXSP,2013-05-28 23:27:00,
2013-05-28 19:32:00,75.9,67.8,29.64,South,189,4.6,15.9,76,0.00,,,0.24,WUHU21623XXSP,2013-05-28 23:32:00,
2013-05-28 19:37:00,75.7,67.6,29.64,SW,222,3.2,13.6,76,0.00,,,0.24,WUHU21623XXSP,2013-05-28 23:37:00,
2013-05-28 19:42:00,75.6,67.5,29.64,South,180,6.0,13.6,76,0.00,,,0.24,WUHU21623XXSP,2013-05-28 23:42:00,
2013-05-28 19:47:00,75.4,67.3,29.63,SW,217,3.3,15.7,76,0.00,,,0.24,WUHU21623XXSP,2013-05-28 23:47:00,
2013-05-28 19:52:00,75.4,67.3,29.63,SW,225,1.1,15.7,76,0.00,,,0.24,WUHU21623XXSP,2013-05-28 23:52:00,
2013-05-28 19:57:00,75.4,67.3,29.63,SSW,199,2.9,6.5,76,0.00,,,0.24,WUHU21623XXSP,2013-05-28 23:57:00,
2013-05-28 20:02:00,75.0,67.0,29.63,South,190,2.3,6.7,76,0.00,,,0.24,WUHU21623XXSP,2013-05-29 00:02:00,
2013-05-28 20:07:00,75.0,67.0,29.63,SW,220,2.1,11.2,76,0.00,,,0.24,WUHU21623XXSP,2013-05-29 00:07:00,
2013-05-28 20:12:00,74.8,67.2,29.63,SSW,196,3.0,11.2,77,0.00,,,0.24,WUHU21623XXSP,2013-05-29 00:12:00,
2013-05-28 20:17:00,74.8,67.2,29.63,SSE,157,0.0,7.8,77,0.00,,,0.24,WUHU21623XXSP,2013-05-29 00:17:00,
2013-05-28 20:22:00,74.5,66.8,29.63,SSW,200,1.6,9.6,77,0.00,,,0.24,WUHU21623XXSP,2013-05-29 00:22:00,
2013-05-28 20:27:00,74.5,67.2,29.63,SW,215,2.7,9.6,78,0.00,,,0.24,WUHU21623XXSP,2013-05-29 00:27:00,
2013-05-28 20:32:00,74.5,67.2,29.63,SSW,202,4.7,8.3,78,0.00,,,0.24,WUHU21623XXSP,2013-05-29 00:32:00,
2013-05-28 20:37:00,74.3,67.0,29.63,South,180,6.3,9.8,78,0.00,,,0.24,WUHU21623XXSP,2013-05-29 00:37:00,
2013-05-28 20:42:00,74.1,66.9,29.63,SSW,200,2.1,9.8,78,0.00,,,0.24,WUHU21623XXSP,2013-05-29 00:42:00,
2013-05-28 20:47:00,74.1,66.9,29.63,SW,216,4.0,9.8,78,0.00,,,0.24,WUHU21623XXSP,2013-05-29 00:47:00,
2013-05-28 20:52:00,73.9,66.7,29.63,South,188,2.6,9.8,78,0.00,,,0.24,WUHU21623XXSP,2013-05-29 00:52:00,
2013-05-28 20:57:00,73.9,66.7,29.63,SW,225,5.1,7.2,78,0.00,,,0.24,WUHU21623XXSP,2013-05-29 00:57:00,
2013-05-28 21:02:00,73.9,67.1,29.63,SW,219,2.8,12.5,79,0.00,,,0.24,WUHU21623XXSP,2013-05-29 01:02:00,
2013-05-28 21:07:00,73.8,66.9,29.63,SSW,197,2.9,12.5,79,0.00,,,0.24,WUHU21623XXSP,2013-05-29 01:07:00,
2013-05-28 21:12:00,73.6,66.7,29.63,SSW,202,4.3,7.4,79,0.00,,,0.24,WUHU21623XXSP,2013-05-29 01:12:00,
2013-05-28 21:17:00,73.6,66.7,29.63,SSW,200,3.0,6.5,79,0.00,,,0.24,WUHU21623XXSP,2013-05-29 01:17:00,
2013-05-28 21:22:00,73.6,67.1,29.62,SSW,206,1.9,6.5,80,0.00,,,0.24,WUHU21623XXSP,2013-05-29 01:22:00,
2013-05-28 21:27:00,73.6,67.1,29.62,SW,216,2.5,13.4,80,0.00,,,0.24,WUHU21623XXSP,2013-05-29 01:27:00,
2013-05-28 21:32:00,73.4,66.9,29.62,South,180,3.6,13.4,80,0.00,,,0.24,WUHU21623XXSP,2013-05-29 01:32:00,
2013-05-28 21:37:00,73.2,66.7,29.61,SW,231,2.4,6.0,80,0.00,,,0.24,WUHU21623XXSP,2013-05-29 01:37:00,
2013-05-28 21:42:00,73.2,66.7,29.62,South,180,9.4,9.4,80,0.00,,,0.24,WUHU21623XXSP,2013-05-29 01:42:00,
2013-05-28 21:47:00,73.2,66.7,29.62,SSW,205,2.0,12.1,80,0.00,,,0.24,WUHU21623XXSP,2013-05-29 01:47:00,
2013-05-28 21:52:00,73.2,67.1,29.62,SSW,203,3.0,12.1,81,0.00,,,0.24,WUHU21623XXSP,2013-05-29 01:52:00,
2013-05-28 22:01:00,73.2,67.1,29.63,SSW,202,7.4,7.4,81,0.00,,,0.24,WUHU21623XXSP,2013-05-29 02:01:00,
2013-05-28 22:06:00,73.0,67.2,29.63,SW,223,3.4,7.4,82,0.06,,,0.30,WUHU21623XXSP,2013-05-29 02:06:00,
2013-05-28 22:11:00,72.7,67.2,29.63,SSW,204,2.6,6.7,83,0.06,,,0.30,WUHU21623XXSP,2013-05-29 02:11:00,
2013-05-28 22:16:00,72.3,66.9,29.63,SSE,157,0.0,5.8,83,0.06,,,0.30,WUHU21623XXSP,2013-05-29 02:16:00,
2013-05-28 22:21:00,72.0,66.8,29.63,South,180,0.9,0.9,84,0.06,,,0.30,WUHU21623XXSP,2013-05-29 02:21:00,
2013-05-28 22:26:00,71.8,67.0,29.62,South,177,1.9,4.7,85,0.08,,,0.32,WUHU21623XXSP,2013-05-29 02:26:00,
2013-05-28 22:31:00,71.4,66.7,29.63,SSE,157,0.0,4.7,85,0.08,,,0.32,WUHU21623XXSP,2013-05-29 02:31:00,
2013-05-28 22:36:00,71.2,66.5,29.63,SW,225,0.0,0.0,85,0.08,,,0.32,WUHU21623XXSP,2013-05-29 02:36:00,
2013-05-28 22:41:00,70.9,66.5,29.62,WNW,292,0.0,0.0,86,0.08,,,0.32,WUHU21623XXSP,2013-05-29 02:41:00,
2013-05-28 22:46:00,70.5,66.1,29.61,WNW,292,0.0,0.0,86,0.08,,,0.32,WUHU21623XXSP,2013-05-29 02:46:00,
2013-05-28 22:51:00,70.3,66.3,29.64,WNW,292,1.0,1.3,87,0.10,,,0.34,WUHU21623XXSP,2013-05-29 02:51:00,
2013-05-28 22:56:00,70.0,65.9,29.66,West,279,1.0,6.7,87,0.12,,,0.36,WUHU21623XXSP,2013-05-29 02:56:00,
2013-05-28 23:01:00,69.6,65.2,29.68,SE,135,3.8,7.8,86,0.18,,,0.42,WUHU21623XXSP,2013-05-29 03:01:00,
2013-05-28 23:06:00,68.7,64.0,29.67,South,180,3.3,12.1,85,0.21,,,0.51,WUHU21623XXSP,2013-05-29 03:06:00,
2013-05-28 23:11:00,67.8,62.8,29.71,SSW,197,3.8,12.8,84,0.27,,,0.57,WUHU21623XXSP,2013-05-29 03:11:00,
2013-05-28 23:16:00,66.7,61.7,29.67,West,270,0.0,12.8,84,0.31,,,0.61,WUHU21623XXSP,2013-05-29 03:16:00,
2013-05-28 23:21:00,66.0,61.0,29.71,SSW,209,2.2,4.7,84,0.33,,,0.63,WUHU21623XXSP,2013-05-29 03:21:00,
2013-05-28 23:26:00,65.5,60.8,29.70,South,190,3.1,13.0,85,0.33,,,0.65,WUHU21623XXSP,2013-05-29 03:26:00,
2013-05-28 23:31:00,65.1,60.5,29.68,South,180,2.7,13.0,85,0.33,,,0.65,WUHU21623XXSP,2013-05-29 03:31:00,
2013-05-28 23:36:00,64.9,60.7,29.68,SSW,202,8.5,8.5,86,0.33,,,0.65,WUHU21623XXSP,2013-05-29 03:36:00,
2013-05-28 23:41:00,64.6,60.3,29.70,SSW,200,2.6,11.2,86,0.33,,,0.65,WUHU21623XXSP,2013-05-29 03:41:00,
2013-05-28 23:46:00,64.6,60.7,29.69,ESE,112,0.0,11.2,87,0.35,,,0.67,WUHU21623XXSP,2013-05-29 03:46:00,
2013-05-28 23:51:00,64.2,60.0,29.65,NE,45,0.0,11.2,86,0.33,,,0.67,WUHU21623XXSP,2013-05-29 03:51:00,
2013-05-28 23:56:00,64.0,60.1,29.66,North,0,0.0,0.0,87,0.31,,,0.67,WUHU21623XXSP,2013-05-29 03:56:00,